Time;durP1;ratioP1;P1;durP2;ratioP2;P2;SDS_P1;SDS_P2;PMS_P1;PMS_P2;Temp;Humidity;BMP_temperature;BMP_pressure;BME280_temperature;BME280_humidity;BME280_pressure;Samples;Min_cycle;Max_cycle;Signal;HPM_P1;HPM_P2
2022/01/28 00:00:49;;;;;;;19.38;3.35;;;4.00;99.90;;;;;;6128513;23;20023;-87
2022/01/28 00:03:16;;;;;;;17.90;3.35;;;4.40;99.90;;;;;;6127684;23;20021;-87
2022/01/28 00:05:42;;;;;;;17.30;3.35;;;3.60;99.90;;;;;;6150691;23;20353;-87
2022/01/28 00:08:09;;;;;;;22.83;4.03;;;3.60;99.90;;;;;;6149829;23;20028;-87
2022/01/28 00:10:38;;;;;;;26.55;4.00;;;3.50;99.90;;;;;;6150197;23;20112;-87
2022/01/28 00:39:37;;;;;;;17.63;3.95;;;3.60;99.90;;;;;;6149901;23;20030;-87
2022/01/28 00:42:04;;;;;;;23.88;4.35;;;3.60;99.90;;;;;;6100426;23;20022;-87
2022/01/28 00:44:29;;;;;;;28.20;4.25;;;3.60;99.90;;;;;;6100565;23;20461;-87
2022/01/28 00:46:55;;;;;;;18.38;3.42;;;3.80;99.90;;;;;;6125228;23;20028;-87
2022/01/28 00:49:21;;;;;;;21.98;4.68;;;4.00;99.90;;;;;;6125028;23;20561;-87
2022/01/28 00:51:47;;;;;;;16.13;4.20;;;3.70;99.90;;;;;;6124972;23;20085;-87
2022/01/28 00:54:12;;;;;;;15.48;3.00;;;3.70;99.90;;;;;;6100783;23;20020;-87
2022/01/28 00:56:38;;;;;;;12.23;3.08;;;4.20;99.90;;;;;;6124994;23;20045;-87
2022/01/28 00:59:04;;;;;;;17.25;3.72;;;3.70;99.90;;;;;;6100686;23;20025;-86
2022/01/28 01:01:30;;;;;;;19.85;3.40;;;3.60;99.90;;;;;;6126663;23;20024;-86
2022/01/28 01:03:59;;;;;;;14.48;3.00;;;3.90;99.90;;;;;;6126392;23;20080;-87
2022/01/28 01:06:25;;;;;;;13.85;3.50;;;3.70;99.90;;;;;;6102131;23;20025;-87
2022/01/28 01:08:51;;;;;;;19.52;3.80;;;3.80;99.90;;;;;;6126832;23;20029;-87
2022/01/28 01:11:20;;;;;;;13.68;3.17;;;3.70;99.90;;;;;;6126937;23;20045;-87
2022/01/28 01:13:46;;;;;;;10.27;3.25;;;4.20;99.90;;;;;;6101856;23;20060;-87
2022/01/28 01:16:15;;;;;;;15.77;3.80;;;4.80;99.90;;;;;;6077769;23;20412;-87
2022/01/28 01:21:12;;;;;;;15.68;2.75;;;3.70;99.90;;;;;;6102235;23;20017;-87
2022/01/28 01:23:46;;;;;;;19.88;3.28;;;3.70;99.90;;;;;;6126348;23;20026;-87
2022/01/28 01:26:14;;;;;;;8.57;2.20;;;4.10;99.90;;;;;;6126886;23;20021;-87
2022/01/28 01:28:41;;;;;;;24.58;4.47;;;3.80;99.90;;;;;;6126332;23;20072;-87
2022/01/28 01:31:12;;;;;;;15.10;2.58;;;3.80;99.90;;;;;;6102466;23;20045;-87
2022/01/28 01:33:55;;;;;;;11.80;2.42;;;4.10;99.90;;;;;;6101820;23;20018;-87
2022/01/28 01:36:21;;;;;;;;;;;3.70;99.90;;;;;;6102933;23;20347;-87
2022/01/28 01:38:47;;;;;;;17.45;3.28;;;3.70;99.90;;;;;;6126427;23;20339;-86
2022/01/28 01:41:20;;;;;;;18.17;3.70;;;3.70;99.90;;;;;;6078477;23;20079;-86
2022/01/28 01:47:14;;;;;;;8.85;2.58;;;3.80;99.90;;;;;;6030298;23;20017;-86
2022/01/28 01:52:16;;;;;;;11.93;3.17;;;4.50;99.90;;;;;;6105772;23;20025;-86
2022/01/28 01:54:43;;;;;;;10.05;2.88;;;4.00;99.90;;;;;;6078760;23;20017;-86
2022/01/28 01:57:11;;;;;;;15.57;2.70;;;4.00;99.90;;;;;;6102056;23;20020;-86
2022/01/28 01:59:39;;;;;;;19.10;4.75;;;4.00;99.90;;;;;;6102019;23;20028;-87
2022/01/28 02:02:06;;;;;;;12.73;2.58;;;4.00;99.90;;;;;;6078371;23;20025;-86
2022/01/28 02:04:32;;;;;;;13.32;3.03;;;4.70;99.90;;;;;;6126463;23;20028;-86
2022/01/28 02:06:59;;;;;;;12.88;3.22;;;5.00;99.90;;;;;;6078189;23;20021;-87
2022/01/28 02:09:25;;;;;;;9.88;2.70;;;4.00;99.90;;;;;;6077973;23;20041;-86
2022/01/28 02:11:51;;;;;;;22.08;3.92;;;3.90;99.90;;;;;;6101942;23;20017;-87
2022/01/28 02:14:17;;;;;;;18.27;3.40;;;4.80;99.90;;;;;;6147404;23;20056;-87
2022/01/28 02:16:43;;;;;;;11.88;2.72;;;3.90;99.90;;;;;;6101759;23;20025;-87
2022/01/28 02:19:08;;;;;;;12.20;2.72;;;4.00;99.90;;;;;;6101316;23;20022;-86
2022/01/28 02:21:39;;;;;;;15.20;3.55;;;4.10;99.90;;;;;;6101859;23;20480;-86
2022/01/28 02:24:06;;;;;;;15.50;3.78;;;4.50;99.90;;;;;;6101890;23;20461;-86
2022/01/28 02:26:35;;;;;;;13.77;2.97;;;4.00;99.90;;;;;;6101319;23;20461;-86
2022/01/28 02:29:07;;;;;;;27.27;3.90;;;3.90;99.90;;;;;;6124462;23;20164;-86
2022/01/28 02:31:33;;;;;;;11.63;3.45;;;4.10;99.90;;;;;;6101420;23;20056;-87
2022/01/28 02:34:00;;;;;;;26.23;4.50;;;3.80;99.90;;;;;;6125490;23;20044;-87
2022/01/28 02:36:26;;;;;;;16.95;3.55;;;3.80;99.90;;;;;;6101580;23;20104;-87
2022/01/28 02:38:53;;;;;;;17.50;4.05;;;3.80;99.90;;;;;;6100889;23;20032;-86
2022/01/28 02:41:18;;;;;;;15.85;3.25;;;3.90;99.90;;;;;;6101139;23;20018;-87
2022/01/28 02:46:25;;;;;;;23.23;4.68;;;4.00;99.90;;;;;;6125493;23;20138;-87
2022/01/28 02:49:02;;;;;;;20.73;3.65;;;4.10;99.90;;;;;;6100602;23;20021;-87
2022/01/28 02:51:27;;;;;;;18.98;4.43;;;4.00;99.90;;;;;;6125358;23;20449;-86
2022/01/28 02:53:59;;;;;;;24.88;4.25;;;4.10;99.90;;;;;;6100708;23;20069;-87
2022/01/28 02:58:55;;;;;;;20.33;3.90;;;4.10;99.90;;;;;;6125698;23;20060;-87
2022/01/28 03:01:20;;;;;;;17.23;3.40;;;4.10;99.90;;;;;;6101123;23;20022;-87
2022/01/28 03:03:49;;;;;;;25.50;3.97;;;4.20;99.90;;;;;;6100482;23;20611;-86
2022/01/28 03:06:17;;;;;;;20.30;4.18;;;4.80;99.90;;;;;;6101006;23;20044;-87
2022/01/28 03:08:51;;;;;;;14.50;3.80;;;4.20;99.90;;;;;;6124440;23;20078;-87
2022/01/28 03:16:38;;;;;;;22.15;4.22;;;4.20;99.90;;;;;;6124747;23;20291;-87
2022/01/28 03:19:19;;;;;;;24.85;4.22;;;4.20;99.90;;;;;;6124994;23;20080;-87
2022/01/28 03:21:53;;;;;;;15.50;3.50;;;4.20;99.90;;;;;;6125270;23;20483;-86
2022/01/28 03:24:20;;;;;;;20.70;4.22;;;4.30;99.90;;;;;;6100277;23;20552;-86
2022/01/28 03:26:49;;;;;;;14.45;4.07;;;4.30;99.90;;;;;;6124903;23;20472;-86
2022/01/28 03:29:15;;;;;;;18.08;3.88;;;4.30;99.90;;;;;;6100169;23;20517;-86
2022/01/28 03:31:41;;;;;;;13.85;3.53;;;5.50;99.90;;;;;;6125842;23;20025;-86
2022/01/28 03:34:06;;;;;;;20.30;4.38;;;4.30;99.90;;;;;;6101582;23;20811;-86
2022/01/28 03:36:32;;;;;;;13.55;3.00;;;4.40;99.90;;;;;;6100718;23;20014;-86
2022/01/28 03:38:58;;;;;;;17.90;3.63;;;4.30;99.90;;;;;;6124904;23;20013;-86
2022/01/28 03:41:24;;;;;;;23.33;3.90;;;4.30;99.90;;;;;;6125215;23;20021;-86
2022/01/28 03:43:57;;;;;;;21.35;4.80;;;4.30;99.90;;;;;;6100248;23;20028;-86
2022/01/28 03:46:24;;;;;;;19.77;3.78;;;4.30;99.90;;;;;;6100568;23;20021;-86
2022/01/28 03:48:50;;;;;;;21.00;4.45;;;4.30;99.90;;;;;;6100057;23;20021;-86
2022/01/28 03:51:15;;;;;;;22.98;3.20;;;4.30;99.90;;;;;;6125073;23;20080;-86
2022/01/28 03:53:41;;;;;;;20.90;3.42;;;4.30;99.90;;;;;;6124839;23;20096;-86
2022/01/28 03:56:07;;;;;;;16.58;3.92;;;4.30;99.90;;;;;;6100005;23;20433;-86
2022/01/28 03:58:32;;;;;;;16.42;4.05;;;4.30;99.90;;;;;;6125275;23;20021;-86
2022/01/28 04:00:59;;;;;;;20.92;3.83;;;4.50;99.90;;;;;;6125063;23;20027;-86
2022/01/28 04:03:40;;;;;;;25.02;4.50;;;4.20;99.90;;;;;;6125444;23;20123;-86
2022/01/28 04:11:33;;;;;;;17.25;3.80;;;4.90;99.90;;;;;;6124633;23;20021;-86
2022/01/28 04:14:14;;;;;;;34.30;4.28;;;4.40;99.90;;;;;;6124670;23;20100;-86
2022/01/28 04:19:24;;;;;;;14.30;4.13;;;4.30;99.90;;;;;;6124572;23;20024;-87
2022/01/28 04:21:50;;;;;;;20.27;4.65;;;4.30;99.90;;;;;;6124765;23;20017;-86
2022/01/28 04:24:16;;;;;;;21.52;4.45;;;5.30;99.90;;;;;;6100314;23;20096;-86
2022/01/28 04:26:42;;;;;;;16.08;3.58;;;4.40;99.90;;;;;;6124364;23;20026;-86
2022/01/28 04:29:08;;;;;;;15.55;3.47;;;4.30;99.90;;;;;;6124720;23;20021;-86
2022/01/28 04:31:35;;;;;;;24.27;4.47;;;4.30;99.90;;;;;;6100200;23;20017;-86
2022/01/28 04:34:02;;;;;;;18.75;3.55;;;4.30;99.90;;;;;;6100433;23;20088;-86
2022/01/28 04:36:32;;;;;;;15.77;3.80;;;5.10;99.90;;;;;;6101924;23;20013;-86
2022/01/28 04:39:19;;;;;;;17.35;3.80;;;4.60;99.90;;;;;;6102552;23;20018;-86
2022/01/28 04:45:10;;;;;;;20.45;4.22;;;4.30;99.90;;;;;;6126615;23;20033;-86
2022/01/28 04:47:30;;;;;;;16.25;4.63;;;4.50;99.90;;;;;;6124503;23;20018;-86
2022/01/28 04:50:11;;;;;;;19.55;4.40;;;4.40;99.90;;;;;;6102968;23;20028;-86
2022/01/28 04:55:19;;;;;;;18.67;4.75;;;5.10;99.90;;;;;;6127042;23;20073;-86
2022/01/28 05:03:02;;;;;;;15.10;3.33;;;5.00;99.90;;;;;;6126372;23;20084;-86
2022/01/28 05:14:04;;;;;;;19.15;5.07;;;4.10;99.90;;;;;;6125917;23;20030;-85
2022/01/28 05:16:53;;;;;;;24.90;5.07;;;3.80;99.90;;;;;;6125866;23;20102;-86
2022/01/28 05:27:50;;;;;;;18.15;3.97;;;3.80;99.90;;;;;;6008284;23;20045;-86
2022/01/28 05:30:16;;;;;;;17.65;4.28;;;3.80;99.90;;;;;;6067336;23;20032;-86
2022/01/28 05:32:42;;;;;;;18.20;4.40;;;3.80;99.90;;;;;;6101770;23;20105;-86
2022/01/28 05:35:08;;;;;;;33.40;5.40;;;3.90;99.90;;;;;;6126574;23;20025;-86
2022/01/28 05:37:34;;;;;;;22.73;4.28;;;3.90;99.90;;;;;;6125589;23;20116;-86
2022/01/28 05:40:00;;;;;;;21.55;3.88;;;3.90;99.90;;;;;;6126018;23;20568;-86
2022/01/28 05:42:25;;;;;;;21.10;4.15;;;3.90;99.90;;;;;;6101152;23;20465;-86
2022/01/28 05:44:51;;;;;;;20.70;4.53;;;3.90;99.90;;;;;;6125717;23;20020;-87
2022/01/28 05:47:17;;;;;;;19.42;4.32;;;3.80;99.90;;;;;;6100778;23;20017;-86
2022/01/28 05:49:44;;;;;;;18.52;4.40;;;3.70;99.90;;;;;;6125824;23;20181;-86
2022/01/28 05:52:10;;;;;;;22.73;4.22;;;3.70;99.90;;;;;;6101402;23;20014;-86
2022/01/28 05:54:36;;;;;;;22.42;4.05;;;4.40;99.90;;;;;;6101507;23;20035;-86
2022/01/28 05:57:02;;;;;;;22.90;4.53;;;3.50;99.90;;;;;;6125848;23;20088;-86
2022/01/28 05:59:27;;;;;;;19.15;4.10;;;3.40;99.90;;;;;;6125722;23;20476;-86
2022/01/28 06:01:53;;;;;;;22.77;3.95;;;3.30;99.90;;;;;;6125528;23;20025;-86
2022/01/28 06:04:21;;;;;;;21.45;4.68;;;3.20;99.90;;;;;;6125480;23;20018;-86
2022/01/28 06:06:47;;;;;;;19.42;4.03;;;3.20;99.90;;;;;;6100921;23;20014;-86
2022/01/28 06:09:13;;;;;;;23.90;4.35;;;3.10;99.90;;;;;;6125491;23;20014;-86
2022/01/28 06:11:39;;;;;;;31.50;5.40;;;3.30;99.90;;;;;;6125300;23;20401;-86
2022/01/28 06:14:05;;;;;;;12.55;3.60;;;3.70;99.90;;;;;;6100808;23;20076;-86
2022/01/28 06:16:31;;;;;;;25.05;5.57;;;3.00;99.90;;;;;;6101210;23;20111;-86
2022/01/28 06:18:57;;;;;;;18.35;4.35;;;3.10;99.90;;;;;;6101428;23;20100;-86
2022/01/28 06:21:22;;;;;;;27.83;6.00;;;3.30;99.90;;;;;;6125553;23;20025;-86
2022/01/28 06:23:50;;;;;;;17.92;4.32;;;3.60;99.90;;;;;;6100755;23;20607;-86
2022/01/28 06:26:16;;;;;;;23.33;4.43;;;3.20;99.90;;;;;;6125790;23;20028;-86
2022/01/28 06:28:42;;;;;;;23.67;4.35;;;3.20;99.90;;;;;;6101162;23;20026;-86
2022/01/28 06:31:07;;;;;;;19.27;4.22;;;3.50;99.90;;;;;;6100943;23;20097;-86
2022/01/28 06:33:33;;;;;;;26.25;4.20;;;3.40;99.90;;;;;;6125284;23;20017;-86
2022/01/28 06:35:59;;;;;;;19.83;4.65;;;3.40;99.90;;;;;;6125733;23;20072;-85
2022/01/28 06:38:25;;;;;;;17.40;4.32;;;3.50;99.90;;;;;;6124880;23;20055;-86
2022/01/28 06:40:51;;;;;;;25.67;4.38;;;3.70;99.90;;;;;;6100710;23;20060;-86
2022/01/28 06:43:17;;;;;;;22.13;4.25;;;3.60;99.90;;;;;;6100606;23;20021;-86
2022/01/28 06:45:43;;;;;;;15.23;4.40;;;3.70;99.90;;;;;;6100570;23;20045;-86
2022/01/28 06:48:13;;;;;;;23.27;4.22;;;3.70;99.90;;;;;;6100456;23;20096;-86
2022/01/28 06:50:42;;;;;;;26.67;4.30;;;3.70;99.90;;;;;;6125323;23;20028;-86
2022/01/28 06:53:09;;;;;;;18.15;3.80;;;3.70;99.90;;;;;;6125166;23;20035;-86
2022/01/28 06:55:35;;;;;;;21.80;3.28;;;3.70;99.90;;;;;;6124859;23;20492;-86
2022/01/28 06:58:02;;;;;;;21.88;4.97;;;3.70;99.90;;;;;;6100368;23;20025;-86
2022/01/28 07:00:28;;;;;;;15.88;3.95;;;4.90;99.90;;;;;;6125396;23;20016;-86
2022/01/28 07:02:53;;;;;;;27.65;4.55;;;3.80;99.90;;;;;;6124833;23;20041;-86
2022/01/28 07:05:19;;;;;;;18.55;3.75;;;4.40;99.90;;;;;;6101056;23;20089;-86
2022/01/28 07:07:46;;;;;;;27.50;5.20;;;4.00;99.90;;;;;;6100504;23;20103;-86
2022/01/28 07:10:12;;;;;;;14.52;3.97;;;3.90;99.90;;;;;;6144916;23;20017;-86
2022/01/28 07:12:38;;;;;;;40.58;5.07;;;3.90;99.90;;;;;;6129285;23;20035;-86
2022/01/28 07:15:04;;;;;;;29.75;4.97;;;4.10;99.90;;;;;;6153749;23;20014;-86
2022/01/28 07:17:30;;;;;;;17.90;4.70;;;3.80;99.90;;;;;;6153526;23;20013;-86
2022/01/28 07:19:56;;;;;;;14.98;3.72;;;3.80;99.90;;;;;;6129549;23;20049;-86
2022/01/28 07:22:22;;;;;;;17.48;4.97;;;3.70;99.90;;;;;;6133427;23;20326;-86
2022/01/28 07:24:47;;;;;;;22.05;4.57;;;4.80;99.90;;;;;;6124906;23;20092;-86
2022/01/28 07:27:19;;;;;;;20.58;4.03;;;3.60;99.90;;;;;;6125441;23;20021;-86
2022/01/28 07:29:49;;;;;;;29.88;4.90;;;3.60;99.90;;;;;;6124477;23;20045;-86
2022/01/28 07:32:15;;;;;;;18.27;4.13;;;3.60;99.90;;;;;;6101100;23;20016;-86
2022/01/28 07:34:41;;;;;;;21.23;5.25;;;3.50;99.90;;;;;;6124659;23;20056;-87
2022/01/28 07:37:07;;;;;;;14.32;3.92;;;3.50;99.90;;;;;;6100246;23;20440;-86
2022/01/28 07:39:32;;;;;;;19.23;5.05;;;3.40;99.90;;;;;;6099908;23;20168;-86
2022/01/28 07:41:58;;;;;;;22.10;4.13;;;3.30;99.90;;;;;;6100420;23;20472;-86
2022/01/28 07:44:24;;;;;;;22.35;4.00;;;3.30;99.90;;;;;;6100043;23;20021;-85
2022/01/28 07:46:49;;;;;;;25.60;4.68;;;3.30;99.90;;;;;;6124646;23;20457;-86
2022/01/28 07:49:16;;;;;;;20.20;4.78;;;3.20;99.90;;;;;;6099067;23;20056;-86
2022/01/28 07:51:42;;;;;;;28.13;5.80;;;3.30;99.90;;;;;;6124386;23;20053;-86
2022/01/28 07:54:08;;;;;;;28.65;4.57;;;3.40;99.90;;;;;;6100537;23;20017;-86
2022/01/28 07:56:35;;;;;;;20.88;4.63;;;3.40;99.90;;;;;;6125445;23;20017;-84
2022/01/28 07:59:01;;;;;;;24.10;4.53;;;3.40;99.90;;;;;;6125142;23;20508;-84
2022/01/28 08:01:26;;;;;;;21.23;4.85;;;3.50;99.90;;;;;;6125334;23;20032;-84
2022/01/28 08:03:52;;;;;;;30.73;6.25;;;3.60;99.90;;;;;;6100509;23;20021;-84
2022/01/28 08:06:18;;;;;;;30.55;5.72;;;3.60;99.90;;;;;;6125232;23;20022;-84
2022/01/28 08:08:43;;;;;;;27.65;5.38;;;3.50;99.90;;;;;;6124485;23;20018;-83
2022/01/28 08:11:09;;;;;;;24.88;5.53;;;3.60;99.90;;;;;;6100780;23;20092;-83
2022/01/28 08:13:35;;;;;;;19.23;5.15;;;3.50;99.90;;;;;;6114507;23;20017;-84
2022/01/28 08:16:00;;;;;;;28.73;4.85;;;3.50;99.90;;;;;;6129886;23;20013;-85
2022/01/28 08:18:26;;;;;;;20.95;4.75;;;4.00;99.90;;;;;;6091019;23;20113;-86
2022/01/28 08:20:52;;;;;;;29.13;4.88;;;3.40;99.90;;;;;;6113673;23;20032;-85
2022/01/28 08:23:18;;;;;;;26.98;4.13;;;3.40;99.90;;;;;;6140806;23;20028;-86
2022/01/28 08:25:44;;;;;;;17.50;3.88;;;4.30;99.90;;;;;;6122212;23;20021;-94
2022/01/28 08:28:11;;;;;;;22.13;3.88;;;3.40;99.90;;;;;;6098825;23;20056;-92
2022/01/28 08:30:39;;;;;;;18.65;3.90;;;4.50;99.90;;;;;;6123209;23;20020;-92
2022/01/28 08:33:06;;;;;;;20.95;5.32;;;3.50;99.90;;;;;;6120968;23;20013;-89
2022/01/28 08:35:36;;;;;;;18.88;4.63;;;3.80;99.90;;;;;;6147722;23;20028;-87
2022/01/28 08:38:03;;;;;;;16.95;3.33;;;3.40;99.90;;;;;;6120481;23;20556;-87
2022/01/28 08:40:29;;;;;;;23.15;4.43;;;3.60;99.90;;;;;;6118841;23;20017;-90
2022/01/28 08:42:56;;;;;;;21.92;4.20;;;3.70;99.90;;;;;;6094559;23;20024;-90
2022/01/28 08:45:21;;;;;;;17.75;4.05;;;3.70;99.90;;;;;;6094790;23;20068;-90
2022/01/28 08:47:48;;;;;;;22.05;5.03;;;4.50;99.90;;;;;;6119203;23;20064;-90
2022/01/28 08:50:14;;;;;;;23.85;4.15;;;3.90;99.90;;;;;;6119501;23;20025;-89
2022/01/28 08:52:39;;;;;;;18.70;4.65;;;4.00;99.90;;;;;;6096160;23;20020;-89
2022/01/28 08:55:06;;;;;;;19.75;4.07;;;4.50;99.90;;;;;;6118954;23;20013;-89
2022/01/28 08:57:33;;;;;;;25.00;4.30;;;4.10;99.90;;;;;;6119074;23;20124;-87
2022/01/28 08:59:58;;;;;;;19.75;3.95;;;4.10;99.90;;;;;;6119039;23;20029;-89
2022/01/28 09:02:24;;;;;;;24.02;4.82;;;4.10;99.90;;;;;;6120393;23;20024;-91
2022/01/28 09:04:50;;;;;;;18.00;4.07;;;4.20;99.90;;;;;;6119544;23;20459;-90
2022/01/28 09:07:18;;;;;;;21.90;5.28;;;5.30;99.90;;;;;;6094793;23;20083;-89
2022/01/28 09:09:50;;;;;;;13.90;3.80;;;4.60;99.90;;;;;;6117212;23;20021;-84
2022/01/28 09:12:38;;;;;;;21.15;4.60;;;4.90;99.90;;;;;;6142607;23;20020;-86
2022/01/28 09:15:05;;;;;;;30.70;4.10;;;5.50;99.90;;;;;;6098202;23;20865;-86
2022/01/28 09:17:31;;;;;;;20.38;4.15;;;6.10;99.90;;;;;;6119987;23;20017;-89
2022/01/28 09:19:57;;;;;;;20.75;4.15;;;6.60;99.90;;;;;;6095621;23;20599;-89
2022/01/28 09:22:23;;;;;;;24.52;5.55;;;6.90;99.90;;;;;;6097311;23;20023;-90
2022/01/28 09:24:49;;;;;;;22.83;4.10;;;7.10;99.90;;;;;;6144723;23;20020;-86
2022/01/28 09:27:14;;;;;;;16.08;4.30;;;8.00;99.90;;;;;;6119514;23;20150;-85
2022/01/28 09:29:40;;;;;;;20.02;3.95;;;7.70;99.90;;;;;;6094370;23;20453;-86
2022/01/28 09:32:07;;;;;;;23.42;4.13;;;8.00;99.90;;;;;;6095661;23;20021;-87
2022/01/28 09:34:33;;;;;;;21.58;4.43;;;8.50;99.90;;;;;;6119932;23;20019;-87
2022/01/28 09:36:59;;;;;;;20.30;4.75;;;9.10;99.90;;;;;;6120153;23;20096;-88
2022/01/28 09:39:25;;;;;;;19.83;5.03;;;7.90;99.90;;;;;;6120693;23;20083;-89
2022/01/28 09:41:59;;;;;;;17.65;4.10;;;7.50;99.90;;;;;;6097807;23;20021;-89
2022/01/28 09:44:25;;;;;;;26.27;4.97;;;7.60;99.90;;;;;;6122581;23;20017;-87
2022/01/28 09:46:51;;;;;;;20.10;3.83;;;7.60;99.90;;;;;;6120775;23;20056;-88
2022/01/28 09:49:18;;;;;;;18.10;4.32;;;7.90;99.90;;;;;;6094751;23;20040;-89
2022/01/28 09:51:44;;;;;;;15.10;4.40;;;8.10;99.90;;;;;;6119358;23;20052;-90
2022/01/28 09:54:10;;;;;;;13.45;4.30;;;7.90;99.90;;;;;;6094947;23;20021;-89
2022/01/28 09:56:35;;;;;;;15.65;3.65;;;7.90;99.90;;;;;;6120853;23;20017;-86
2022/01/28 09:59:01;;;;;;;19.42;4.45;;;7.40;99.90;;;;;;6094784;23;20479;-87
2022/01/28 10:01:27;;;;;;;19.85;4.03;;;7.20;99.90;;;;;;6095712;23;20024;-87
2022/01/28 10:04:05;;;;;;;23.13;4.30;;;7.00;99.90;;;;;;6119803;23;20038;-88
2022/01/28 10:06:32;;;;;;;15.13;4.13;;;7.10;99.90;;;;;;6120160;23;20022;-88
2022/01/28 10:09:01;;;;;;;21.08;4.22;;;7.40;99.90;;;;;;6145211;23;20357;-89
2022/01/28 10:11:28;;;;;;;17.55;5.68;;;7.80;99.90;;;;;;6121298;23;20456;-88
2022/01/28 10:13:56;;;;;;;22.85;6.30;;;7.80;99.90;;;;;;6090873;23;20017;-87
2022/01/28 10:16:27;;;;;;;23.63;5.88;;;7.60;99.90;;;;;;6091073;23;20018;-87
2022/01/28 10:18:59;;;;;;;24.58;5.30;;;7.50;99.90;;;;;;6092472;23;20047;-86
2022/01/28 10:21:32;;;;;;;20.17;4.55;;;7.10;99.90;;;;;;6120044;23;20058;-87
2022/01/28 10:24:24;;;;;;;17.60;3.80;;;7.10;99.90;;;;;;6120861;23;20075;-87
2022/01/28 10:27:06;;;;;;;17.53;3.50;;;7.00;99.90;;;;;;6096702;23;20160;-89
2022/01/28 10:29:40;;;;;;;22.80;5.03;;;7.00;99.90;;;;;;6123567;23;20051;-86
2022/01/28 10:32:20;;;;;;;21.85;4.53;;;7.70;99.90;;;;;;6119654;23;20096;-87
2022/01/28 10:34:48;;;;;;;22.63;5.68;;;6.80;99.90;;;;;;6092897;23;20587;-88
2022/01/28 10:37:29;;;;;;;21.02;4.90;;;6.80;99.90;;;;;;6091485;23;20101;-82
2022/01/28 10:40:06;;;;;;;22.92;5.22;;;6.70;99.90;;;;;;6113827;23;20028;-81
2022/01/28 10:42:41;;;;;;;26.90;5.28;;;6.70;99.90;;;;;;6113500;23;20689;-81
2022/01/28 10:45:12;;;;;;;18.33;4.70;;;6.80;99.90;;;;;;6112990;23;20025;-82
2022/01/28 10:47:42;;;;;;;24.10;5.10;;;6.80;99.90;;;;;;6113709;23;20025;-85
2022/01/28 10:50:18;;;;;;;19.17;5.10;;;6.90;99.90;;;;;;6089223;23;20025;-85
2022/01/28 10:52:44;;;;;;;22.42;4.93;;;7.00;99.90;;;;;;6089555;23;20013;-86
2022/01/28 10:55:16;;;;;;;23.60;4.63;;;7.00;99.90;;;;;;6113614;23;20479;-86
2022/01/28 10:58:02;;;;;;;21.05;4.88;;;7.10;99.90;;;;;;6089993;23;20022;-86
2022/01/28 11:00:40;;;;;;;25.17;5.25;;;7.00;99.90;;;;;;6114384;23;20021;-86
2022/01/28 11:03:07;;;;;;;18.58;4.05;;;7.10;99.90;;;;;;6113961;23;20496;-86
2022/01/28 11:05:34;;;;;;;22.75;5.75;;;7.10;99.90;;;;;;6090148;23;20112;-86
2022/01/28 11:08:02;;;;;;;20.88;4.50;;;7.00;99.90;;;;;;6092116;23;20013;-94
2022/01/28 11:10:29;;;;;;;23.73;4.43;;;7.10;99.90;;;;;;6122053;23;20017;-89
2022/01/28 11:12:56;;;;;;;23.25;4.72;;;7.10;99.90;;;;;;6125424;23;20013;-85
2022/01/28 11:15:23;;;;;;;22.55;4.40;;;7.20;99.90;;;;;;6125162;23;20084;-83
2022/01/28 11:17:50;;;;;;;17.67;3.97;;;7.20;99.90;;;;;;6127848;23;20017;-90
2022/01/28 11:20:21;;;;;;;13.73;4.57;;;7.30;99.90;;;;;;6129306;23;20585;-91
2022/01/28 11:22:56;;;;;;;22.38;4.25;;;7.40;99.90;;;;;;6105367;23;20460;-92
2022/01/28 11:25:43;;;;;;;17.92;4.30;;;7.40;99.90;;;;;;6105389;23;20017;-94
2022/01/28 11:28:12;;;;;;;22.10;4.68;;;7.50;99.90;;;;;;6102922;23;20022;-90
2022/01/28 11:30:50;;;;;;;18.83;4.22;;;7.50;99.90;;;;;;6102366;23;20021;-89
2022/01/28 11:33:17;;;;;;;22.02;3.78;;;7.80;99.90;;;;;;6102437;23;20508;-90
2022/01/28 11:35:49;;;;;;;24.10;4.35;;;7.60;99.90;;;;;;6102123;23;20456;-92
2022/01/28 11:38:27;;;;;;;17.85;4.13;;;7.60;99.90;;;;;;6106943;23;20018;-96
2022/01/28 11:41:18;;;;;;;21.05;4.18;;;7.70;99.90;;;;;;6103537;23;20031;-88
2022/01/28 11:43:53;;;;;;;17.90;3.83;;;7.70;99.90;;;;;;6099881;23;20056;-88
2022/01/28 11:46:27;;;;;;;23.05;4.47;;;7.50;99.90;;;;;;6125528;23;20017;-85
2022/01/28 11:48:54;;;;;;;23.42;4.55;;;7.40;99.90;;;;;;6100749;23;20104;-87
2022/01/28 11:51:33;;;;;;;18.98;4.25;;;7.40;99.90;;;;;;6125610;23;20021;-85
2022/01/28 11:54:18;;;;;;;18.13;4.82;;;7.30;99.90;;;;;;6125301;23;20101;-85
2022/01/28 11:56:56;;;;;;;18.45;4.43;;;7.30;99.90;;;;;;6125069;23;20473;-86
2022/01/28 11:59:26;;;;;;;22.90;4.10;;;7.30;99.90;;;;;;6100164;23;20021;-84
2022/01/28 12:01:52;;;;;;;19.50;4.13;;;7.20;99.90;;;;;;6126348;23;20449;-84
2022/01/28 12:04:24;;;;;;;17.10;4.30;;;7.20;99.90;;;;;;6125277;23;20021;-85
2022/01/28 12:07:10;;;;;;;22.38;3.67;;;7.20;99.90;;;;;;6100694;23;20017;-89
2022/01/28 12:09:37;;;;;;;21.08;4.10;;;7.30;99.90;;;;;;6124237;23;20052;-86
2022/01/28 12:12:05;;;;;;;21.92;3.67;;;7.30;99.90;;;;;;6126033;23;20024;-85
2022/01/28 12:14:54;;;;;;;22.08;4.55;;;7.40;99.90;;;;;;6123480;23;20396;-85
2022/01/28 12:17:30;;;;;;;20.17;4.03;;;7.40;99.90;;;;;;6130595;23;20044;-85
2022/01/28 12:20:21;;;;;;;21.55;4.07;;;7.50;99.90;;;;;;6154552;23;20095;-85
2022/01/28 12:23:04;;;;;;;24.60;4.15;;;7.60;99.90;;;;;;6129975;23;20096;-85
2022/01/28 12:25:36;;;;;;;17.45;3.70;;;7.50;99.90;;;;;;6154709;23;20020;-85
2022/01/28 12:28:30;;;;;;;22.58;3.53;;;7.50;99.90;;;;;;6154124;23;20021;-85
2022/01/28 12:31:13;;;;;;;22.95;4.63;;;7.40;99.90;;;;;;6130111;23;20018;-85
2022/01/28 12:33:44;;;;;;;23.90;4.13;;;7.40;99.90;;;;;;6154658;23;20103;-85
2022/01/28 12:36:15;;;;;;;22.42;4.10;;;7.40;99.90;;;;;;6153919;23;20080;-85
2022/01/28 12:38:46;;;;;;;13.38;3.92;;;7.50;99.90;;;;;;6153364;23;20092;-85
2022/01/28 12:41:16;;;;;;;17.33;3.65;;;7.30;99.90;;;;;;6128803;23;20041;-85
2022/01/28 12:43:42;;;;;;;22.83;4.65;;;7.30;99.90;;;;;;6129686;23;20066;-85
2022/01/28 12:46:10;;;;;;;16.83;4.35;;;7.40;99.90;;;;;;6130374;23;20104;-90
2022/01/28 12:48:44;;;;;;;14.27;4.30;;;7.10;99.90;;;;;;6129459;23;20178;-89
2022/01/28 12:51:10;;;;;;;19.77;4.50;;;7.90;99.90;;;;;;6129787;23;20325;-89
2022/01/28 12:53:40;;;;;;;21.65;4.47;;;7.20;99.90;;;;;;6129264;23;20021;-89
2022/01/28 12:56:08;;;;;;;16.73;4.25;;;7.10;99.90;;;;;;6154497;23;20024;-89
2022/01/28 12:58:47;;;;;;;15.50;4.07;;;6.80;99.90;;;;;;6130866;23;20017;-89
2022/01/28 13:01:15;;;;;;;19.30;3.60;;;6.70;99.90;;;;;;6155923;23;20194;-88
2022/01/28 13:03:49;;;;;;;16.02;3.65;;;6.70;99.90;;;;;;6155772;23;20020;-88
2022/01/28 13:06:41;;;;;;;15.73;3.55;;;6.80;99.90;;;;;;6108227;23;20040;-89
2022/01/28 13:09:24;;;;;;;18.63;4.10;;;6.90;99.90;;;;;;6131057;23;20151;-89
2022/01/28 13:11:50;;;;;;;;;;;7.20;99.90;;;;;;6131875;23;20017;-88
2022/01/28 13:14:36;;;;;;;17.02;4.13;;;7.50;99.90;;;;;;6155281;23;19926;-88
2022/01/28 13:17:06;;;;;;;16.15;3.95;;;7.60;99.90;;;;;;6131801;23;20017;-88
2022/01/28 13:19:31;;;;;;;19.90;3.97;;;7.60;99.90;;;;;;6131643;23;20023;-88
2022/01/28 13:21:57;;;;;;;17.63;3.90;;;7.70;99.90;;;;;;6106048;23;20104;-88
2022/01/28 13:24:29;;;;;;;18.27;3.67;;;7.70;99.90;;;;;;6149983;23;20111;-89
2022/01/28 13:26:56;;;;;;;18.25;4.63;;;8.40;99.90;;;;;;6123915;23;20092;-89
2022/01/28 13:29:39;;;;;;;14.95;3.70;;;7.40;99.90;;;;;;6171840;23;20020;-89
2022/01/28 13:32:09;;;;;;;22.65;4.35;;;7.40;99.90;;;;;;6123271;23;20294;-89
2022/01/28 13:34:53;;;;;;;27.27;8.20;;;7.50;99.90;;;;;;6122385;23;20638;-89
2022/01/28 13:37:47;;;;;;;26.02;4.85;;;7.30;99.90;;;;;;6123251;23;20115;-86
2022/01/28 13:40:31;;;;;;;17.13;3.35;;;7.20;99.90;;;;;;6147952;23;20028;-86
2022/01/28 13:42:58;;;;;;;13.00;3.90;;;7.10;99.90;;;;;;6147921;23;20094;-86
2022/01/28 13:45:32;;;;;;;15.10;4.03;;;7.00;99.90;;;;;;6122972;23;20017;-86
2022/01/28 13:47:59;;;;;;;18.83;4.10;;;6.80;99.90;;;;;;6124149;23;20452;-86
2022/01/28 13:50:35;;;;;;;15.48;3.20;;;6.80;99.90;;;;;;6123372;23;20021;-86
2022/01/28 13:56:02;;;;;;;16.52;3.70;;;6.80;99.90;;;;;;6146970;23;20032;-86
2022/01/28 13:58:29;;;;;;;15.18;3.75;;;6.90;99.90;;;;;;6148334;23;20110;-86
2022/01/28 14:00:56;;;;;;;13.15;3.67;;;7.00;99.90;;;;;;6148383;23;20092;-86
2022/01/28 14:03:27;;;;;;;16.27;4.05;;;7.00;99.90;;;;;;6098131;23;20020;-86
2022/01/28 14:06:01;;;;;;;15.95;3.63;;;7.10;99.90;;;;;;6099755;23;20017;-86
2022/01/28 14:08:39;;;;;;;20.08;4.05;;;7.00;99.90;;;;;;6127537;23;20088;-86
2022/01/28 14:11:24;;;;;;;18.83;3.75;;;6.90;99.90;;;;;;6154627;23;20457;-86
2022/01/28 14:14:04;;;;;;;14.80;3.30;;;6.90;99.90;;;;;;6124970;23;20024;-86
2022/01/28 14:16:30;;;;;;;21.35;4.00;;;6.70;99.90;;;;;;6125433;23;20025;-86
2022/01/28 14:18:56;;;;;;;17.35;3.33;;;6.70;99.90;;;;;;6101209;23;20394;-86
2022/01/28 14:21:22;;;;;;;15.25;4.22;;;6.60;99.90;;;;;;6125943;23;20096;-86
2022/01/28 14:23:48;;;;;;;17.70;4.30;;;6.90;99.90;;;;;;6101658;23;20057;-86